Time;durP1;ratioP1;P1;durP2;ratioP2;P2;SDS_P1;SDS_P2;PMS_P1;PMS_P2;Temp;Humidity;BMP_temperature;BMP_pressure;BME280_temperature;BME280_humidity;BME280_pressure;Samples;Min_cycle;Max_cycle;Signal;HPM_P1;HPM_P2
2022/04/09 00:04:26;;;;;;;0.80;0.50;;;;;;;;;;20880477;28;20582;-67
2022/04/09 00:14:28;;;;;;;0.33;0.33;;;;;;;;;;20881085;28;20206;-68
2022/04/09 00:24:30;;;;;;;1.93;1.00;;;;;;;;;;20879631;28;20210;-69
2022/04/09 00:34:32;;;;;;;0.50;0.20;;;;;;;;;;20878717;28;20253;-68
2022/04/09 00:44:34;;;;;;;0.20;0.20;;;;;;;;;;20862111;28;20556;-69
2022/04/09 00:54:42;;;;;;;0.70;0.50;;;4.20;99.90;;;;;;20845134;28;20217;-69
2022/04/09 01:04:44;;;;;;;0.30;0.30;;;;;;;;;;20860633;28;20248;-69
2022/04/09 01:14:46;;;;;;;0.60;0.60;;;;;;;;;;20843345;28;20209;-69
2022/04/09 01:24:48;;;;;;;0.57;0.50;;;;;;;;;;20874039;28;20701;-69
2022/04/09 01:34:52;;;;;;;1.97;0.87;;;;;;;;;;20880020;28;20386;-70
2022/04/09 01:44:55;;;;;;;0.50;0.30;;;;;;;;;;20957107;28;20594;-71
2022/04/09 01:54:57;;;;;;;0.70;0.60;;;;;;;;;;20956256;28;20217;-72
2022/04/09 02:04:59;;;;;;;1.17;0.67;;;;;;;;;;20971723;28;20209;-72
2022/04/09 02:15:02;;;;;;;1.40;1.10;;;;;;;;;;20938128;28;20611;-72
2022/04/09 02:25:04;;;;;;;1.33;0.90;;;;;;;;;;20937467;28;20270;-73
2022/04/09 02:35:06;;;;;;;1.50;0.73;;;-0.50;99.90;;;;;;20866243;28;20271;-74
2022/04/09 02:45:11;;;;;;;3.50;1.37;;;3.90;99.90;;;;;;20870076;28;20275;-73
2022/04/09 02:55:14;;;;;;;1.30;1.03;;;3.90;99.90;;;;;;20870504;28;20255;-73
2022/04/09 03:05:17;;;;;;;1.43;1.10;;;;;;;;;;20870252;28;20620;-73
2022/04/09 03:15:19;;;;;;;0.90;0.70;;;;;;;;;;20869108;28;20210;-73
2022/04/09 03:25:22;;;;;;;0.77;0.70;;;;;;;;;;20868815;28;20581;-73
2022/04/09 03:35:28;;;;;;;0.67;0.67;;;;;;;;;;20858772;28;20232;-74
2022/04/09 03:45:32;;;;;;;0.87;0.73;;;;;;;;;;20894617;28;20225;-72
2022/04/09 03:55:36;;;;;;;1.13;0.80;;;;;;;;;;20850186;28;20217;-72
2022/04/09 04:05:40;;;;;;;1.33;0.70;;;;;;;;;;20881367;28;20786;-72
2022/04/09 04:15:42;;;;;;;0.90;0.70;;;;;;;;;;20864361;28;20194;-72
2022/04/09 04:25:45;;;;;;;0.40;0.40;;;;;;;;;;20847359;28;20774;-72
2022/04/09 04:35:47;;;;;;;0.63;0.60;;;3.40;99.90;;;;;;20845528;28;20221;-72
2022/04/09 04:45:49;;;;;;;0.63;0.63;;;;;;;;;;20877530;28;20284;-71
2022/04/09 04:55:52;;;;;;;1.20;0.83;;;;;;;;;;20860885;28;20296;-71
2022/04/09 05:05:56;;;;;;;0.70;0.70;;;3.30;99.90;;;;;;20876668;28;20259;-69
2022/04/09 05:15:58;;;;;;;1.13;0.87;;;;;;;;;;20843080;28;20251;-69
2022/04/09 05:26:02;;;;;;;1.27;0.77;;;;;;;;;;20858780;28;20232;-69
2022/04/09 05:36:05;;;;;;;1.07;0.70;;;;;;;;;;20890762;28;20757;-69
2022/04/09 05:46:08;;;;;;;1.33;0.77;;;;;;;;;;20849116;28;20225;-66
2022/04/09 05:56:12;;;;;;;0.90;0.77;;;;;;;;;;20934169;28;20206;-66
2022/04/09 06:06:17;;;;;;;1.60;1.30;;;;;;;;;;20849033;28;20611;-67
2022/04/09 06:16:35;;;;;;;2.10;0.70;;;;;;;;;;20849404;28;20213;-66
2022/04/09 06:26:39;;;;;;;1.60;0.77;;;;;;;;;;20866883;28;20225;-66
2022/04/09 06:36:43;;;;;;;1.60;1.40;;;5.00;99.90;;;;;;20825982;28;20716;-66
2022/04/09 06:46:46;;;;;;;0.97;0.67;;;;;;;;;;20840290;28;20272;-69
2022/04/09 06:57:09;;;;;;;2.20;1.07;;;;;;;;;;20840897;28;20251;-68
2022/04/09 07:07:24;;;;;;;2.37;1.30;;;;;;;;;;20854575;28;20278;-69
2022/04/09 07:17:31;;;;;;;1.83;1.03;;;;;;;;;;20893505;28;20695;-68
2022/04/09 07:27:47;;;;;;;0.90;0.63;;;6.80;99.90;;;;;;20849154;28;20288;-69
2022/04/09 07:37:55;;;;;;;1.33;0.87;;;;;;;;;;20894096;28;20232;-69
2022/04/09 07:47:59;;;;;;;0.83;0.60;;;7.30;99.90;;;;;;20832113;28;20218;-69
2022/04/09 07:58:01;;;;;;;1.23;0.80;;;;;;;;;;20857865;28;20688;-70
2022/04/09 08:08:03;;;;;;;1.90;0.70;;;8.10;99.90;;;;;;20832907;28;20643;-69
2022/04/09 08:18:10;;;;;;;2.03;0.67;;;;;;;;;;20828131;28;20222;-69
2022/04/09 08:28:17;;;;;;;4.40;0.90;;;;;;;;;;20882183;28;20275;-69
2022/04/09 08:38:19;;;;;;;1.30;0.60;;;8.20;99.90;;;;;;20840706;28;20226;-69
2022/04/09 08:48:21;;;;;;;1.83;0.70;;;;;;;;;;20875863;28;20311;-68
2022/04/09 08:58:23;;;;;;;5.20;1.47;;;;;;;;;;20849456;28;20213;-70
2022/04/09 09:08:40;;;;;;;2.07;0.87;;;8.60;99.90;;;;;;20856379;28;20625;-68
2022/04/09 09:18:42;;;;;;;2.23;0.50;;;;;;;;;;20866384;28;20205;-69
2022/04/09 09:28:44;;;;;;;1.30;0.70;;;;;;;;;;20875661;28;20275;-68
2022/04/09 09:38:45;;;;;;;2.00;0.80;;;;;;;;;;20890837;28;20225;-69
2022/04/09 09:48:50;;;;;;;2.63;0.60;;;10.10;99.90;;;;;;20934523;28;20345;-69
2022/04/09 09:58:52;;;;;;;1.70;0.83;;;;;;;;;;20896047;28;20217;-69
2022/04/09 10:08:54;;;;;;;3.50;1.03;;;;;;;;;;20869441;28;20217;-70
2022/04/09 10:19:02;;;;;;;1.37;0.53;;;;;;;;;;20842848;28;20214;-68
2022/04/09 10:29:09;;;;;;;1.57;0.77;;;;;;;;;;20870251;28;20233;-69
2022/04/09 10:39:52;;;;;;;4.60;1.10;;;12.10;99.90;;;;;;20845403;28;20271;-69
2022/04/09 10:50:05;;;;;;;2.73;0.83;;;11.90;99.90;;;;;;20861392;28;20689;-69
2022/04/09 11:00:30;;;;;;;1.50;0.60;;;;;;;;;;20876578;28;20213;-69
2022/04/09 11:10:32;;;;;;;1.00;0.70;;;;;;;;;;20891998;28;20260;-68
2022/04/09 11:20:35;;;;;;;3.20;0.80;;;12.10;99.90;;;;;;20838268;28;20214;-68
2022/04/09 11:30:37;;;;;;;1.90;0.83;;;;;;;;;;20854555;28;20641;-68
2022/04/09 11:40:46;;;;;;;1.57;0.90;;;12.60;99.90;;;;;;20853066;28;20222;-67
2022/04/09 11:50:49;;;;;;;2.90;1.10;;;;;;;;;;20876079;28;20233;-67
2022/04/09 12:00:51;;;;;;;4.27;0.90;;;;;;;;;;20880923;28;20228;-67
2022/04/09 12:11:10;;;;;;;1.20;0.60;;;11.00;99.90;;;;;;20879084;28;20234;-67
2022/04/09 12:21:18;;;;;;;1.43;0.70;;;11.20;99.90;;;;;;20843929;28;20597;-67
2022/04/09 12:31:24;;;;;;;2.87;0.77;;;;;;;;;;20856985;28;20217;-67
2022/04/09 12:41:27;;;;;;;0.77;0.40;;;11.20;99.90;;;;;;20854311;28;20603;-67
2022/04/09 12:51:31;;;;;;;0.83;0.50;;;;;;;;;;20885676;28;20276;-67
2022/04/09 13:01:32;;;;;;;1.03;0.60;;;;;;;;;;20899368;28;20586;-67
2022/04/09 13:11:34;;;;;;;0.87;0.60;;;;;;;;;;20872711;28;20395;-67
2022/04/09 13:21:36;;;;;;;5.57;0.70;;;;;;;;;;20841660;28;20275;-67
2022/04/09 13:31:38;;;;;;;2.77;0.70;;;;;;;;;;20840756;28;20697;-67
2022/04/09 13:41:40;;;;;;;1.90;0.60;;;;;;;;;;20875999;28;20290;-67
2022/04/09 13:51:42;;;;;;;0.57;0.50;;;11.10;99.90;;;;;;20935278;28;20221;-67
2022/04/09 14:01:44;;;;;;;1.13;0.40;;;;;;;;;;20937544;28;20201;-66
2022/04/09 14:11:46;;;;;;;1.70;0.50;;;10.90;99.90;;;;;;20906689;28;20645;-66
2022/04/09 14:21:48;;;;;;;1.63;0.70;;;;;;;;;;20909668;28;20278;-66
2022/04/09 14:31:50;;;;;;;1.87;0.60;;;;;;;;;;20897754;28;20252;-66
2022/04/09 14:41:53;;;;;;;1.23;0.53;;;10.90;99.90;;;;;;20855951;28;20218;-67
2022/04/09 14:51:56;;;;;;;1.27;0.47;;;;;;;;;;20880866;28;20222;-67
2022/04/09 15:01:59;;;;;;;2.00;0.60;;;;;;;;;;20830121;28;20256;-67
2022/04/09 15:12:03;;;;;;;1.33;0.53;;;;;;;;;;20860952;28;20314;-67
2022/04/09 15:22:07;;;;;;;1.80;0.67;;;10.10;99.90;;;;;;20925526;28;20209;-67
2022/04/09 15:32:10;;;;;;;0.83;0.50;;;;;;;;;;20895127;28;20252;-67
2022/04/09 15:42:12;;;;;;;0.60;0.23;;;;;;;;;;20855544;28;20209;-67
2022/04/09 15:52:14;;;;;;;1.17;0.40;;;;;;;;;;20851817;28;20251;-67
2022/04/09 16:02:17;;;;;;;0.40;0.30;;;;;;;;;;20874405;28;20692;-67
2022/04/09 16:12:19;;;;;;;0.40;0.30;;;;;;;;;;20851082;28;20222;-68
2022/04/09 16:22:20;;;;;;;0.43;0.40;;;;;;;;;;20916092;28;20507;-67
2022/04/09 16:32:22;;;;;;;0.83;0.20;;;;;;;;;;20855313;28;20283;-67
2022/04/09 16:42:24;;;;;;;0.70;0.30;;;;;;;;;;20923358;28;20209;-67
2022/04/09 16:52:26;;;;;;;0.60;0.30;;;;;;;;;;20904500;28;20218;-67
2022/04/09 17:02:28;;;;;;;0.40;0.20;;;;;;;;;;20865012;28;20209;-67
2022/04/09 17:12:30;;;;;;;0.43;0.20;;;9.30;99.90;;;;;;20843135;28;20683;-67
2022/04/09 17:22:32;;;;;;;1.07;0.50;;;;;;;;;;20862154;28;20630;-67
2022/04/09 17:32:34;;;;;;;0.30;0.27;;;;;;;;;;20844760;28;20315;-68
2022/04/09 17:42:36;;;;;;;0.40;0.30;;;;;;;;;;20880690;28;20640;-67
2022/04/09 17:52:38;;;;;;;0.53;0.30;;;;;;;;;;20876898;28;20611;-67
2022/04/09 18:02:40;;;;;;;0.67;0.40;;;;;;;;;;20835834;28;20226;-67
2022/04/09 18:12:43;;;;;;;0.50;0.40;;;;;;;;;;20859967;28;20219;-67
2022/04/09 18:22:45;;;;;;;0.20;0.20;;;;;;;;;;20863032;28;20206;-66
2022/04/09 18:32:50;;;;;;;2.20;0.60;;;7.90;99.90;;;;;;20837986;28;20283;-67
2022/04/09 18:42:53;;;;;;;0.50;0.20;;;;;;;;;;20897341;28;20298;-67
2022/04/09 18:52:55;;;;;;;1.23;0.60;;;;;;;;;;20860801;28;20279;-68
2022/04/09 19:02:57;;;;;;;0.67;0.50;;;;;;;;;;20852165;28;20571;-67
2022/04/09 19:12:59;;;;;;;1.70;0.73;;;;;;;;;;20874336;28;20221;-68
2022/04/09 19:23:01;;;;;;;0.33;0.30;;;;;;;;;;20895028;28;20528;-68
2022/04/09 19:33:03;;;;;;;1.40;0.47;;;;;;;;;;20866495;28;20307;-68
2022/04/09 19:43:05;;;;;;;0.30;0.30;;;7.00;99.90;;;;;;20867073;28;20266;-67
2022/04/09 19:53:09;;;;;;;0.67;0.33;;;;;;;;;;20923627;28;20307;-68
2022/04/09 20:03:11;;;;;;;0.50;0.40;;;;;;;;;;20905413;28;20909;-67
2022/04/09 20:13:17;;;;;;;0.47;0.43;;;;;;;;;;20853885;28;20226;-67
2022/04/09 20:23:21;;;;;;;0.50;0.47;;;;;;;;;;20868342;28;20210;-67
2022/04/09 20:33:23;;;;;;;0.60;0.40;;;;;;;;;;20910221;28;20275;-68
2022/04/09 20:43:26;;;;;;;0.80;0.50;;;6.90;99.90;;;;;;20862479;28;20279;-67
2022/04/09 20:53:29;;;;;;;0.40;0.40;;;;;;;;;;20842816;28;20222;-68
2022/04/09 21:03:31;;;;;;;0.27;0.23;;;;;;;;;;20842164;28;20232;-67
2022/04/09 21:13:32;;;;;;;0.60;0.50;;;;;;;;;;20843830;28;20213;-67
2022/04/09 21:23:34;;;;;;;1.27;0.27;;;;;;;;;;20839690;28;20213;-67
2022/04/09 21:33:37;;;;;;;1.63;0.50;;;;;;;;;;20839046;28;20218;-67
2022/04/09 21:43:39;;;;;;;2.70;0.90;;;;;;;;;;20836945;28;20202;-67
2022/04/09 21:53:41;;;;;;;1.27;0.57;;;;;;;;;;20861389;28;20217;-68
2022/04/09 22:03:43;;;;;;;0.53;0.33;;;;;;;;;;20872346;28;20705;-67
2022/04/09 22:13:45;;;;;;;0.20;0.20;;;;;;;;;;20838803;28;20618;-68
2022/04/09 22:23:47;;;;;;;0.50;0.33;;;;;;;;;;20860050;28;20799;-68
2022/04/09 22:33:49;;;;;;;0.30;0.20;;;;;;;;;;20882656;28;20251;-67
2022/04/09 22:43:52;;;;;;;0.10;0.10;;;;;;;;;;20936532;28;20555;-67
2022/04/09 22:53:54;;;;;;;0.23;0.20;;;;;;;;;;20936266;28;20604;-67
2022/04/09 23:03:56;;;;;;;0.60;0.30;;;;;;;;;;20952480;28;20205;-67
2022/04/09 23:13:57;;;;;;;0.60;0.50;;;;;;;;;;20926393;28;20639;-67
2022/04/09 23:23:59;;;;;;;0.50;0.30;;;;;;;;;;20885169;28;20276;-68
2022/04/09 23:34:01;;;;;;;1.17;0.63;;;;;;;;;;20836338;28;20218;-68
2022/04/09 23:44:03;;;;;;;0.73;0.50;;;;;;;;;;20883913;28;20236;-67
2022/04/09 23:54:05;;;;;;;0.60;0.40;;;;;;;;;;20892005;28;20280;-68
